Wilson Cadiz — 8PSY — position and weather

sailwx.info

Track history (hours):
 
Tides and Currents Weather Stations Pressure Air Temp Water Temp Dewpoint Dewpoint Depression Visibility Wind Speed Wind Dir Waves Ship Positions

Wilson Cadiz

Last reported at 2014-Jul-29 16:33 UTC. Time now 2014-Jul-29 16:49 UTC.
Position N 36°26' W 008°38'.

Length 100 m; draft 5.9 m.

Type: Ship. MMSI: 314216000.

Date/timePositionNaut miles runAvg speedWind from/ knotsBaromVisibWave heightAir tempDewpointWater temp
2014-Jul-29 16:33N 36°26' W 008°38'11 9.9
2014-Jul-29 15:24N 36°29' W 008°52'8 9.5
2014-Jul-29 14:33N 36°31' W 009°02'12 9.3
2014-Jul-29 13:15N 36°34' W 009°16'10 9.5
2014-Jul-29 12:14N 36°41' W 009°25'8 9.8
2014-Jul-29 11:26N 36°46' W 009°31'12 9.7
2014-Jul-29 10:10N 36°58' W 009°36'7 9.7
2014-Jul-29 09:25N 37°05' W 009°38'9 9.8
2014-Jul-29 08:32N 37°14' W 009°40'1110.8
2014-Jul-29 07:32N 37°24' W 009°44'1310.9
2014-Jul-29 06:23N 37°36' W 009°48'1010.8
2014-Jul-29 05:30N 37°46' W 009°50'2610.5
2014-Jul-29 03:03N 38°11' W 009°57'910.4
2014-Jul-29 02:09N 38°20' W 009°60'810.5
2014-Jul-29 01:21N 38°28' W 010°02'910.6
2014-Jul-29 00:32N 38°36' W 010°05'1210.5
2014-Jul-28 23:23N 38°48' W 010°06'1110.5
2014-Jul-28 22:18N 38°60' W 010°06'51610.3
2014-Jul-26 20:05N 47°18' W 007°04'4010.9
2014-Jul-26 16:26N 47°53' W 006°35'28 9.6
2014-Jul-26 13:30N 48°18' W 006°16'5410.4
2014-Jul-26 08:17N 49°01' W 005°26'21910.4
2014-Jul-25 11:09N 50°29' W 000°14'711.0
2014-Jul-25 10:31N 50°31' W 000°04'1010.3
2014-Jul-25 09:33N 50°34' E 000°11'10 9.6
2014-Jul-25 08:33N 50°37' E 000°26'10 9.7
2014-Jul-25 07:33N 50°41' E 000°40'1110.7
2014-Jul-25 06:32N 50°47' E 000°54'2512.4
2014-Jul-25 04:33N 51°02' E 001°24'1212.1
2014-Jul-25 03:34N 51°10' E 001°39'1110.5
2014-Jul-25 02:33N 51°18' E 001°50'9 9.5
2014-Jul-25 01:33N 51°26' E 001°57'9 9.2
2014-Jul-25 00:33N 51°33' E 002°07'9 9.2
2014-Jul-24 23:33N 51°40' E 002°18'10 9.6
2014-Jul-24 22:33N 51°47' E 002°28'1110.7
2014-Jul-24 21:34N 51°55' E 002°40'1211.6
2014-Jul-24 20:34N 52°03' E 002°52'1312.2
2014-Jul-24 19:32N 52°14' E 003°04'1212.3
2014-Jul-24 18:33N 52°24' E 003°15'1211.9
2014-Jul-24 17:33N 52°33' E 003°26'1111.1
2014-Jul-24 16:34N 52°42' E 003°37'1010.4
2014-Jul-24 15:33N 52°51' E 003°46'10 9.7
2014-Jul-24 14:33N 52°58' E 003°57'1010.1
2014-Jul-24 13:33N 53°05' E 004°10'2711.4
2014-Jul-24 11:10N 53°27' E 004°37'711.7
2014-Jul-24 10:34N 53°30' E 004°47'1212.1
2014-Jul-24 09:33N 53°34' E 005°06'1111.5
2014-Jul-24 08:34N 53°38' E 005°25'1110.6
2014-Jul-24 07:33N 53°41' E 005°42'10 9.9
2014-Jul-24 06:34N 53°44' E 005°57'10 9.8
2014-Jul-24 05:34N 53°48' E 006°13'10 9.8
2014-Jul-24 04:34N 53°50' E 006°29'1010.4
2014-Jul-24 03:33N 53°53' E 006°46'1211.4
2014-Jul-24 02:31N 53°56' E 007°05'1411.8
2014-Jul-24 01:22N 53°60' E 007°28'1011.8
2014-Jul-24 00:33N 54°02' E 007°43'1211.7
2014-Jul-23 23:34N 54°01' E 008°03'1111.3
2014-Jul-23 22:33N 53°60' E 008°22'1110.6
2014-Jul-23 21:33N 53°56' E 008°40'8 8.3
2014-Jul-23 20:34N 53°50' E 008°49'8 8.4
2014-Jul-23 19:33N 53°52' E 009°03'4 3.7
2014-Jul-23 18:28N 53°54' E 009°09'7 7.1
2014-Jul-23 17:27N 53°60' E 009°17'9 8.8
2014-Jul-23 16:25N 54°08' E 009°21'58 5.6
2014-Jul-23 06:10N 54°35' E 010°48'6 9.3
2014-Jul-23 05:33N 54°36' E 010°58'1010.3
2014-Jul-23 04:33N 54°35' E 011°15'1111.1
2014-Jul-23 03:33N 54°31' E 011°33'1010.3
2014-Jul-23 02:34N 54°27' E 011°50'1010.4
2014-Jul-23 01:34N 54°27' E 012°08'1110.7
2014-Jul-23 00:33N 54°37' E 012°15'1111.1
2014-Jul-22 23:34N 54°44' E 012°31'1110.9
2014-Jul-22 22:33N 54°49' E 012°47'1010.3
2014-Jul-22 21:34N 54°52' E 013°04'1110.6
2014-Jul-22 20:34N 54°56' E 013°21'1110.6
2014-Jul-22 19:33N 54°59' E 013°39'1110.7
2014-Jul-22 18:34N 55°02' E 013°57'1110.5
2014-Jul-22 17:33N 55°09' E 014°11'1111.0
2014-Jul-22 16:33N 55°18' E 014°23'1111.0
2014-Jul-22 15:33N 55°26' E 014°36'1110.6
2014-Jul-22 14:34N 55°32' E 014°52'1110.9
2014-Jul-22 13:34N 55°37' E 015°09'1111.0
2014-Jul-22 12:33N 55°42' E 015°26'1111.2
2014-Jul-22 11:33N 55°48' E 015°43'1111.2
2014-Jul-22 10:33N 55°54' E 016°00'1111.0
2014-Jul-22 09:34N 55°59' E 016°17'1111.1
2014-Jul-22 08:33N 56°05' E 016°34'1210.6
2014-Jul-22 07:28N 56°13' E 016°48'1010.9
2014-Jul-22 06:31N 56°23' E 016°57'1010.8
2014-Jul-22 05:33N 56°32' E 017°03'1111.1
2014-Jul-22 04:33N 56°43' E 017°09'1111.3
2014-Jul-22 03:33N 56°54' E 017°16'1111.1
2014-Jul-22 02:34N 57°04' E 017°22'1111.3
2014-Jul-22 01:33N 57°15' E 017°29'1111.2
2014-Jul-22 00:33N 57°25' E 017°36'1110.6
2014-Jul-21 23:33N 57°36' E 017°39'1110.8
2014-Jul-21 22:33N 57°47' E 017°39'1110.9
2014-Jul-21 21:33N 57°58' E 017°40'1110.9
2014-Jul-21 20:33N 58°08' E 017°40'310.9
2014-Jul-21 20:18N 58°11' E 017°39'810.8
2014-Jul-21 19:33N 58°19' E 017°39'1110.7
2014-Jul-21 18:33N 58°30' E 017°40'1010.2
2014-Jul-21 17:34N 58°37' E 017°26'  
Track history (hours):
 
Tides and Currents Weather Stations Pressure Air Temp Water Temp Dewpoint Dewpoint Depression Visibility Wind Speed Wind Dir Waves Ship Positions

Wilson Cadiz

Last reported at 2014-Jul-29 16:33 UTC. Time now 2014-Jul-29 16:49 UTC.
Position N 36°26' W 008°38'.

Length 100 m; draft 5.9 m.

Type: Ship. MMSI: 314216000.

Date/timePositionNaut miles runAvg speedWind from/ knotsBaromVisibWave heightAir tempDewpointWater temp
2014-Jul-29 16:33N 36°26' W 008°38'11 9.9
2014-Jul-29 15:24N 36°29' W 008°52'8 9.5
2014-Jul-29 14:33N 36°31' W 009°02'12 9.3
2014-Jul-29 13:15N 36°34' W 009°16'10 9.5
2014-Jul-29 12:14N 36°41' W 009°25'8 9.8
2014-Jul-29 11:26N 36°46' W 009°31'12 9.7
2014-Jul-29 10:10N 36°58' W 009°36'7 9.7
2014-Jul-29 09:25N 37°05' W 009°38'9 9.8
2014-Jul-29 08:32N 37°14' W 009°40'1110.8
2014-Jul-29 07:32N 37°24' W 009°44'1310.9
2014-Jul-29 06:23N 37°36' W 009°48'1010.8
2014-Jul-29 05:30N 37°46' W 009°50'2610.5
2014-Jul-29 03:03N 38°11' W 009°57'910.4
2014-Jul-29 02:09N 38°20' W 009°60'810.5
2014-Jul-29 01:21N 38°28' W 010°02'910.6
2014-Jul-29 00:32N 38°36' W 010°05'1210.5
2014-Jul-28 23:23N 38°48' W 010°06'1110.5
2014-Jul-28 22:18N 38°60' W 010°06'51610.3
2014-Jul-26 20:05N 47°18' W 007°04'4010.9
2014-Jul-26 16:26N 47°53' W 006°35'28 9.6
2014-Jul-26 13:30N 48°18' W 006°16'5410.4
2014-Jul-26 08:17N 49°01' W 005°26'21910.4
2014-Jul-25 11:09N 50°29' W 000°14'711.0
2014-Jul-25 10:31N 50°31' W 000°04'1010.3
2014-Jul-25 09:33N 50°34' E 000°11'10 9.6
2014-Jul-25 08:33N 50°37' E 000°26'10 9.7
2014-Jul-25 07:33N 50°41' E 000°40'1110.7
2014-Jul-25 06:32N 50°47' E 000°54'2512.4
2014-Jul-25 04:33N 51°02' E 001°24'1212.1
2014-Jul-25 03:34N 51°10' E 001°39'1110.5
2014-Jul-25 02:33N 51°18' E 001°50'9 9.5
2014-Jul-25 01:33N 51°26' E 001°57'9 9.2
2014-Jul-25 00:33N 51°33' E 002°07'9 9.2
2014-Jul-24 23:33N 51°40' E 002°18'10 9.6
2014-Jul-24 22:33N 51°47' E 002°28'1110.7
2014-Jul-24 21:34N 51°55' E 002°40'1211.6
2014-Jul-24 20:34N 52°03' E 002°52'1312.2
2014-Jul-24 19:32N 52°14' E 003°04'1212.3
2014-Jul-24 18:33N 52°24' E 003°15'1211.9
2014-Jul-24 17:33N 52°33' E 003°26'1111.1
2014-Jul-24 16:34N 52°42' E 003°37'1010.4
2014-Jul-24 15:33N 52°51' E 003°46'10 9.7
2014-Jul-24 14:33N 52°58' E 003°57'1010.1
2014-Jul-24 13:33N 53°05' E 004°10'2711.4
2014-Jul-24 11:10N 53°27' E 004°37'711.7
2014-Jul-24 10:34N 53°30' E 004°47'1212.1
2014-Jul-24 09:33N 53°34' E 005°06'1111.5
2014-Jul-24 08:34N 53°38' E 005°25'1110.6
2014-Jul-24 07:33N 53°41' E 005°42'10 9.9
2014-Jul-24 06:34N 53°44' E 005°57'10 9.8
2014-Jul-24 05:34N 53°48' E 006°13'10 9.8
2014-Jul-24 04:34N 53°50' E 006°29'1010.4
2014-Jul-24 03:33N 53°53' E 006°46'1211.4
2014-Jul-24 02:31N 53°56' E 007°05'1411.8
2014-Jul-24 01:22N 53°60' E 007°28'1011.8
2014-Jul-24 00:33N 54°02' E 007°43'1211.7
2014-Jul-23 23:34N 54°01' E 008°03'1111.3
2014-Jul-23 22:33N 53°60' E 008°22'1110.6
2014-Jul-23 21:33N 53°56' E 008°40'8 8.3
2014-Jul-23 20:34N 53°50' E 008°49'8 8.4
2014-Jul-23 19:33N 53°52' E 009°03'4 3.7
2014-Jul-23 18:28N 53°54' E 009°09'7 7.1
2014-Jul-23 17:27N 53°60' E 009°17'9 8.8
2014-Jul-23 16:25N 54°08' E 009°21'58 5.6
2014-Jul-23 06:10N 54°35' E 010°48'6 9.3
2014-Jul-23 05:33N 54°36' E 010°58'1010.3
2014-Jul-23 04:33N 54°35' E 011°15'1111.1
2014-Jul-23 03:33N 54°31' E 011°33'1010.3
2014-Jul-23 02:34N 54°27' E 011°50'1010.4
2014-Jul-23 01:34N 54°27' E 012°08'1110.7
2014-Jul-23 00:33N 54°37' E 012°15'1111.1
2014-Jul-22 23:34N 54°44' E 012°31'1110.9
2014-Jul-22 22:33N 54°49' E 012°47'1010.3
2014-Jul-22 21:34N 54°52' E 013°04'1110.6
2014-Jul-22 20:34N 54°56' E 013°21'1110.6
2014-Jul-22 19:33N 54°59' E 013°39'1110.7
2014-Jul-22 18:34N 55°02' E 013°57'1110.5
2014-Jul-22 17:33N 55°09' E 014°11'1111.0
2014-Jul-22 16:33N 55°18' E 014°23'1111.0
2014-Jul-22 15:33N 55°26' E 014°36'1110.6
2014-Jul-22 14:34N 55°32' E 014°52'1110.9
2014-Jul-22 13:34N 55°37' E 015°09'1111.0
2014-Jul-22 12:33N 55°42' E 015°26'1111.2
2014-Jul-22 11:33N 55°48' E 015°43'1111.2
2014-Jul-22 10:33N 55°54' E 016°00'1111.0
2014-Jul-22 09:34N 55°59' E 016°17'1111.1
2014-Jul-22 08:33N 56°05' E 016°34'1210.6
2014-Jul-22 07:28N 56°13' E 016°48'1010.9
2014-Jul-22 06:31N 56°23' E 016°57'1010.8
2014-Jul-22 05:33N 56°32' E 017°03'1111.1
2014-Jul-22 04:33N 56°43' E 017°09'1111.3
2014-Jul-22 03:33N 56°54' E 017°16'1111.1
2014-Jul-22 02:34N 57°04' E 017°22'1111.3
2014-Jul-22 01:33N 57°15' E 017°29'1111.2
2014-Jul-22 00:33N 57°25' E 017°36'1110.6
2014-Jul-21 23:33N 57°36' E 017°39'1110.8
2014-Jul-21 22:33N 57°47' E 017°39'1110.9
2014-Jul-21 21:33N 57°58' E 017°40'1110.9
2014-Jul-21 20:33N 58°08' E 017°40'310.9
2014-Jul-21 20:18N 58°11' E 017°39'810.8
2014-Jul-21 19:33N 58°19' E 017°39'1110.7
2014-Jul-21 18:33N 58°30' E 017°40'1010.2
2014-Jul-21 17:34N 58°37' E 017°26'  

Dump ship's entire track history